createdAt,value
2022-09-04T00:02:52.993Z,72
2022-09-04T00:08:39.680Z,66
2022-09-04T00:14:20.221Z,70
2022-09-04T00:20:00.706Z,70
2022-09-04T00:25:41.014Z,72
2022-09-04T00:31:21.994Z,64
2022-09-04T00:37:03.235Z,72
2022-09-04T00:42:43.324Z,66
2022-09-04T00:48:24.049Z,64
2022-09-04T00:54:04.696Z,72
2022-09-04T00:59:44.889Z,60
2022-09-04T01:05:28.623Z,66
2022-09-04T01:11:09.743Z,70
2022-09-04T01:16:51.180Z,72
2022-09-04T01:22:31.945Z,60
2022-09-04T01:28:12.209Z,64
2022-09-04T01:33:52.676Z,78
2022-09-04T01:50:57.751Z,70
2022-09-04T01:56:37.847Z,72
2022-09-04T02:02:18.557Z,72
2022-09-04T02:07:58.966Z,66
2022-09-04T02:13:39.167Z,60
2022-09-04T02:19:19.603Z,68
2022-09-04T02:24:59.769Z,70
2022-09-04T02:30:39.983Z,68
2022-09-04T02:36:20.522Z,70
2022-09-04T02:42:01.090Z,60
2022-09-04T02:47:41.134Z,72
2022-09-04T02:53:21.510Z,62
2022-09-04T02:59:01.916Z,70
2022-09-04T03:04:42.128Z,64
2022-09-04T03:10:22.358Z,70
2022-09-04T03:16:03.780Z,68
2022-09-04T03:21:44.273Z,62
2022-09-04T03:27:24.840Z,66
2022-09-04T03:38:45.072Z,64
2022-09-04T03:44:25.416Z,70
2022-09-04T03:50:05.812Z,70
2022-09-04T03:55:46.128Z,58
2022-09-04T04:01:27.133Z,66
2022-09-04T04:07:07.512Z,72
2022-09-04T04:12:50.499Z,70
2022-09-04T04:18:31.058Z,72
2022-09-04T04:24:11.348Z,70
2022-09-04T04:29:51.502Z,64
2022-09-04T04:35:31.732Z,60
2022-09-04T04:41:12.066Z,62
2022-09-04T04:46:53.043Z,70
2022-09-04T04:52:33.307Z,58
2022-09-04T04:58:13.669Z,72
2022-09-04T05:03:54.041Z,72
2022-09-04T05:09:34.383Z,56
2022-09-04T05:15:14.893Z,68
2022-09-04T05:26:35.477Z,62
2022-09-04T05:32:15.883Z,68
2022-09-04T05:37:56.517Z,68
2022-09-04T05:43:36.823Z,64
2022-09-04T05:49:17.470Z,60
2022-09-04T05:54:58.289Z,72
2022-09-04T06:00:38.878Z,66
2022-09-04T06:06:19.709Z,74
2022-09-04T06:12:01.112Z,72
2022-09-04T06:17:41.610Z,72
2022-09-04T06:23:22.141Z,78
2022-09-04T06:29:06.399Z,68
2022-09-04T06:34:46.815Z,70
2022-09-04T06:40:27.284Z,74
2022-09-04T06:46:07.870Z,64
2022-09-04T06:51:48.840Z,70
2022-09-04T06:57:30.225Z,90
2022-09-04T07:03:10.799Z,80
2022-09-04T07:14:31.246Z,72
2022-09-04T07:20:15.454Z,78
2022-09-04T07:25:55.727Z,80
2022-09-04T07:31:36.684Z,82
2022-09-04T07:37:16.967Z,86
2022-09-04T07:42:59.397Z,80
2022-09-04T07:48:39.848Z,80
2022-09-04T07:54:23.804Z,66
2022-09-04T08:00:04.944Z,18
2022-09-04T08:05:44.430Z,28
2022-09-04T08:11:24.939Z,14
2022-09-04T08:17:05.971Z,16
2022-09-04T08:22:46.052Z,20
2022-09-04T08:28:27.044Z,16
2022-09-04T08:34:07.272Z,30
2022-09-04T08:39:48.128Z,22
2022-09-04T08:45:29.691Z,18
2022-09-04T08:51:22.353Z,12
2022-09-04T08:57:02.383Z,6
2022-09-04T09:02:48.276Z,10
2022-09-04T09:08:32.872Z,4
2022-09-04T09:14:13.530Z,2
2022-09-04T09:19:53.950Z,0
2022-09-04T09:25:33.820Z,2
2022-09-04T09:31:14.727Z,26
2022-09-04T09:36:56.380Z,0
2022-09-04T09:42:36.061Z,0
2022-09-04T09:48:16.543Z,2
2022-09-04T09:53:57.847Z,2
2022-09-04T09:59:38.988Z,2
2022-09-04T10:05:19.268Z,2
2022-09-04T10:10:59.566Z,2
2022-09-04T10:16:40.239Z,2
2022-09-04T10:22:20.830Z,2
2022-09-04T10:28:01.343Z,4
2022-09-04T10:33:41.641Z,0
2022-09-04T10:39:22.175Z,4
2022-09-04T10:45:02.725Z,4
2022-09-04T10:50:48.592Z,14
2022-09-04T10:56:28.559Z,64
2022-09-04T11:02:09.411Z,2
2022-09-04T11:07:51.092Z,0
2022-09-04T11:13:32.512Z,16
2022-09-04T11:24:17.213Z,6
2022-09-04T11:29:58.189Z,20
2022-09-04T11:35:38.382Z,22
2022-09-04T11:41:18.280Z,2
2022-09-04T11:46:58.785Z,16
2022-09-04T11:52:38.876Z,20
2022-09-04T11:58:18.666Z,16
2022-09-04T12:03:59.600Z,14
2022-09-04T12:09:39.980Z,6
2022-09-04T12:15:20.297Z,14
2022-09-04T12:21:07.313Z,20
2022-09-04T12:27:05.433Z,8
2022-09-04T12:32:46.231Z,22
2022-09-04T12:38:26.526Z,12
2022-09-04T12:49:46.709Z,16
2022-09-04T12:55:36.874Z,22
2022-09-04T13:01:18.279Z,36
2022-09-04T13:06:58.715Z,2
2022-09-04T13:12:39.657Z,0
2022-09-04T13:18:21.236Z,0
2022-09-04T13:24:02.131Z,0
2022-09-04T13:29:47.798Z,28
2022-09-04T13:35:28.500Z,24
2022-09-04T13:41:11.213Z,76
2022-09-04T13:46:55.439Z,26
2022-09-04T13:52:38.638Z,90
2022-09-04T13:58:19.606Z,74
2022-09-04T14:04:03.719Z,70
2022-09-04T14:09:48.006Z,12
2022-09-04T14:15:28.667Z,26
2022-09-04T14:26:58.788Z,34
2022-09-04T14:32:41.914Z,44
2022-09-04T14:38:28.348Z,90
2022-09-04T14:44:08.698Z,82
2022-09-04T14:49:48.556Z,88
2022-09-04T14:55:28.721Z,84
2022-09-04T15:01:08.351Z,80
2022-09-04T15:07:12.682Z,82
2022-09-04T15:12:52.983Z,80
2022-09-04T15:18:33.334Z,88
2022-09-04T15:24:14.137Z,78
2022-09-04T15:30:04.114Z,78
2022-09-04T15:35:44.550Z,76
2022-09-04T15:41:24.858Z,82
2022-09-04T15:47:05.646Z,72
2022-09-04T15:52:46.150Z,82
2022-09-04T16:04:07.739Z,72
2022-09-04T16:09:48.021Z,86
2022-09-04T16:15:28.401Z,78
2022-09-04T16:21:08.578Z,76
2022-09-04T16:26:49.326Z,78
2022-09-04T16:32:29.408Z,76
2022-09-04T16:38:09.501Z,70
2022-09-04T16:43:49.738Z,88
2022-09-04T16:49:29.894Z,88
2022-09-04T16:55:10.072Z,82
2022-09-04T17:00:50.116Z,78
2022-09-04T17:06:30.301Z,76
2022-09-04T17:12:18.422Z,84
2022-09-04T17:18:01.247Z,72
2022-09-04T17:29:48.193Z,80
2022-09-04T17:42:11.833Z,72
2022-09-04T17:47:54.274Z,78
2022-09-04T17:53:35.540Z,82
2022-09-04T17:59:15.631Z,78
2022-09-04T18:04:55.579Z,74
2022-09-04T18:10:42.578Z,80
2022-09-04T18:16:24.009Z,78
2022-09-04T18:22:34.330Z,76
2022-09-04T18:28:14.887Z,72
2022-09-04T18:51:23.694Z,84
2022-09-04T18:57:07.247Z,76
2022-09-04T19:02:54.445Z,72
2022-09-04T19:08:34.628Z,80
2022-09-04T19:14:14.712Z,76
2022-09-04T19:19:59.201Z,72
2022-09-04T19:25:55.435Z,66
2022-09-04T19:31:36.175Z,70
2022-09-04T19:46:37.138Z,70
2022-09-04T20:04:14.900Z,70
2022-09-04T20:09:58.669Z,70
2022-09-04T20:15:39.451Z,78
2022-09-04T20:21:19.791Z,70
2022-09-04T20:27:00.792Z,72
2022-09-04T20:32:47.014Z,70
2022-09-04T20:38:40.323Z,70
2022-09-04T20:44:24.126Z,76
2022-09-04T20:53:23.879Z,66
2022-09-04T21:03:33.047Z,72
2022-09-04T21:09:14.517Z,74
2022-09-04T21:14:57.091Z,70
2022-09-04T21:21:04.412Z,76
2022-09-04T21:26:44.895Z,72
2022-09-04T21:32:27.361Z,66
2022-09-04T21:38:10.592Z,66
2022-09-04T21:43:50.774Z,58
2022-09-04T21:49:34.133Z,64
2022-09-04T22:03:03.595Z,64
2022-09-04T22:13:55.388Z,74
2022-09-04T22:19:40.203Z,70
2022-09-04T22:25:19.941Z,72
2022-09-04T22:31:00.852Z,70
2022-09-04T22:36:41.031Z,70
2022-09-04T22:42:21.311Z,66
2022-09-04T22:48:01.555Z,78
2022-09-04T22:53:41.786Z,66
2022-09-04T22:59:31.192Z,64
2022-09-04T23:05:11.543Z,64
2022-09-04T23:14:18.828Z,72
2022-09-04T23:27:04.265Z,66
2022-09-04T23:32:46.425Z,78
2022-09-04T23:38:26.488Z,72
2022-09-04T23:44:06.830Z,70
2022-09-04T23:49:47.603Z,68
2022-09-04T23:55:50.307Z,70
